sensor_id;sensor_type;location;lat;lon;timestamp;temperature;humidity
24232;DHT22;12364;47.810;8.810;2024-03-22T04:48:01;10.30;99.90
24232;DHT22;12364;47.810;8.810;2024-03-22T04:50:28;10.50;99.90
24232;DHT22;12364;47.810;8.810;2024-03-22T04:52:54;10.50;99.90
24232;DHT22;12364;47.810;8.810;2024-03-22T04:55:20;10.60;99.90
24232;DHT22;12364;47.810;8.810;2024-03-22T04:57:46;10.70;99.90
24232;DHT22;12364;47.810;8.810;2024-03-22T05:00:12;10.70;99.90
24232;DHT22;12364;47.810;8.810;2024-03-22T05:02:39;10.70;99.90
24232;DHT22;12364;47.810;8.810;2024-03-22T05:05:06;10.20;99.90
24232;DHT22;12364;47.810;8.810;2024-03-22T05:07:34;9.70;99.90
24232;DHT22;12364;47.810;8.810;2024-03-22T05:10:00;10.00;99.90
24232;DHT22;12364;47.810;8.810;2024-03-22T05:12:26;10.20;99.90
24232;DHT22;12364;47.810;8.810;2024-03-22T05:14:52;10.30;99.90
24232;DHT22;12364;47.810;8.810;2024-03-22T05:17:18;10.40;99.90
24232;DHT22;12364;47.810;8.810;2024-03-22T05:19:44;10.40;99.90
24232;DHT22;12364;47.810;8.810;2024-03-22T05:22:10;10.30;99.90
24232;DHT22;12364;47.810;8.810;2024-03-22T05:24:36;10.10;99.90
24232;DHT22;12364;47.810;8.810;2024-03-22T05:27:02;10.30;99.90
24232;DHT22;12364;47.810;8.810;2024-03-22T05:29:28;10.30;99.90
24232;DHT22;12364;47.810;8.810;2024-03-22T05:31:54;10.40;99.90
24232;DHT22;12364;47.810;8.810;2024-03-22T05:34:20;10.40;99.90
24232;DHT22;12364;47.810;8.810;2024-03-22T05:36:46;10.40;99.90
24232;DHT22;12364;47.810;8.810;2024-03-22T05:39:12;10.30;99.90
24232;DHT22;12364;47.810;8.810;2024-03-22T05:41:38;10.10;99.90
24232;DHT22;12364;47.810;8.810;2024-03-22T05:44:04;10.30;99.90
24232;DHT22;12364;47.810;8.810;2024-03-22T05:46:30;10.30;99.90
24232;DHT22;12364;47.810;8.810;2024-03-22T05:48:57;10.10;99.90
24232;DHT22;12364;47.810;8.810;2024-03-22T05:51:23;10.00;99.90
24232;DHT22;12364;47.810;8.810;2024-03-22T05:53:49;10.10;99.90
24232;DHT22;12364;47.810;8.810;2024-03-22T05:56:15;10.30;99.90
24232;DHT22;12364;47.810;8.810;2024-03-22T05:58:41;10.20;99.90
24232;DHT22;12364;47.810;8.810;2024-03-22T06:01:07;10.30;99.90
24232;DHT22;12364;47.810;8.810;2024-03-22T06:03:33;10.30;99.90
24232;DHT22;12364;47.810;8.810;2024-03-22T06:05:59;10.50;99.90
24232;DHT22;12364;47.810;8.810;2024-03-22T06:08:29;10.50;99.90
24232;DHT22;12364;47.810;8.810;2024-03-22T06:10:57;10.60;99.90
24232;DHT22;12364;47.810;8.810;2024-03-22T06:13:24;10.30;99.90
24232;DHT22;12364;47.810;8.810;2024-03-22T06:15:50;10.20;99.90
24232;DHT22;12364;47.810;8.810;2024-03-22T06:18:16;10.20;99.90
24232;DHT22;12364;47.810;8.810;2024-03-22T06:20:43;10.40;99.90
24232;DHT22;12364;47.810;8.810;2024-03-22T06:23:09;10.50;99.90
24232;DHT22;12364;47.810;8.810;2024-03-22T06:25:36;10.50;99.90
24232;DHT22;12364;47.810;8.810;2024-03-22T06:28:02;10.40;99.90
24232;DHT22;12364;47.810;8.810;2024-03-22T06:30:28;10.40;99.90
24232;DHT22;12364;47.810;8.810;2024-03-22T06:32:54;10.60;99.90
24232;DHT22;12364;47.810;8.810;2024-03-22T06:35:20;10.60;99.90
24232;DHT22;12364;47.810;8.810;2024-03-22T06:37:46;10.70;99.90
24232;DHT22;12364;47.810;8.810;2024-03-22T06:40:14;10.70;99.90
24232;DHT22;12364;47.810;8.810;2024-03-22T06:42:40;10.50;99.90
24232;DHT22;12364;47.810;8.810;2024-03-22T06:45:07;10.50;99.90
24232;DHT22;12364;47.810;8.810;2024-03-22T06:47:33;10.70;99.90
24232;DHT22;12364;47.810;8.810;2024-03-22T06:49:59;10.90;99.90
24232;DHT22;12364;47.810;8.810;2024-03-22T06:52:25;10.90;99.90
24232;DHT22;12364;47.810;8.810;2024-03-22T06:54:51;11.00;99.90
24232;DHT22;12364;47.810;8.810;2024-03-22T06:57:19;11.00;99.90
24232;DHT22;12364;47.810;8.810;2024-03-22T06:59:45;11.00;99.90
24232;DHT22;12364;47.810;8.810;2024-03-22T07:02:11;11.00;99.90
24232;DHT22;12364;47.810;8.810;2024-03-22T07:04:38;10.80;99.90
24232;DHT22;12364;47.810;8.810;2024-03-22T07:07:04;10.80;99.90
24232;DHT22;12364;47.810;8.810;2024-03-22T07:09:32;10.90;99.90
24232;DHT22;12364;47.810;8.810;2024-03-22T07:11:58;11.00;99.90
24232;DHT22;12364;47.810;8.810;2024-03-22T07:14:24;11.00;99.90
24232;DHT22;12364;47.810;8.810;2024-03-22T07:16:51;11.00;99.90
24232;DHT22;12364;47.810;8.810;2024-03-22T07:19:22;10.90;99.90
24232;DHT22;12364;47.810;8.810;2024-03-22T07:21:48;10.60;99.90
24232;DHT22;12364;47.810;8.810;2024-03-22T07:24:14;10.50;99.90
24232;DHT22;12364;47.810;8.810;2024-03-22T07:26:40;10.70;99.90
24232;DHT22;12364;47.810;8.810;2024-03-22T07:29:06;10.70;99.90
24232;DHT22;12364;47.810;8.810;2024-03-22T07:31:32;10.80;99.90
24232;DHT22;12364;47.810;8.810;2024-03-22T07:33:58;10.70;99.90
24232;DHT22;12364;47.810;8.810;2024-03-22T07:36:24;10.80;99.90
24232;DHT22;12364;47.810;8.810;2024-03-22T07:38:52;10.80;99.90
24232;DHT22;12364;47.810;8.810;2024-03-22T07:41:18;10.80;99.90
24232;DHT22;12364;47.810;8.810;2024-03-22T07:43:44;10.70;99.90
24232;DHT22;12364;47.810;8.810;2024-03-22T07:46:10;10.70;99.90
24232;DHT22;12364;47.810;8.810;2024-03-22T07:48:37;10.80;99.90
24232;DHT22;12364;47.810;8.810;2024-03-22T07:51:03;10.90;99.90
24232;DHT22;12364;47.810;8.810;2024-03-22T07:53:29;11.00;99.90
24232;DHT22;12364;47.810;8.810;2024-03-22T07:55:55;11.20;99.90
24232;DHT22;12364;47.810;8.810;2024-03-22T07:58:21;11.20;99.90
24232;DHT22;12364;47.810;8.810;2024-03-22T08:00:47;11.20;99.90
24232;DHT22;12364;47.810;8.810;2024-03-22T08:03:14;11.20;99.90
24232;DHT22;12364;47.810;8.810;2024-03-22T08:05:40;11.20;99.90
24232;DHT22;12364;47.810;8.810;2024-03-22T08:08:06;11.30;99.90
24232;DHT22;12364;47.810;8.810;2024-03-22T08:10:33;11.30;99.90
24232;DHT22;12364;47.810;8.810;2024-03-22T08:12:59;11.20;99.90
24232;DHT22;12364;47.810;8.810;2024-03-22T08:15:26;11.20;99.90
24232;DHT22;12364;47.810;8.810;2024-03-22T08:17:53;11.40;99.90
24232;DHT22;12364;47.810;8.810;2024-03-22T08:20:19;11.50;99.90
24232;DHT22;12364;47.810;8.810;2024-03-22T08:22:45;11.60;99.90
24232;DHT22;12364;47.810;8.810;2024-03-22T08:25:11;11.70;99.90
24232;DHT22;12364;47.810;8.810;2024-03-22T08:27:38;11.70;99.90
24232;DHT22;12364;47.810;8.810;2024-03-22T08:30:04;11.80;99.90
24232;DHT22;12364;47.810;8.810;2024-03-22T08:32:30;11.90;99.90
24232;DHT22;12364;47.810;8.810;2024-03-22T08:34:56;11.80;99.90
24232;DHT22;12364;47.810;8.810;2024-03-22T08:37:22;11.90;99.90
24232;DHT22;12364;47.810;8.810;2024-03-22T08:39:48;11.90;99.90
24232;DHT22;12364;47.810;8.810;2024-03-22T08:42:14;11.90;99.90
24232;DHT22;12364;47.810;8.810;2024-03-22T08:44:40;12.00;99.90
24232;DHT22;12364;47.810;8.810;2024-03-22T08:47:06;12.00;99.90
24232;DHT22;12364;47.810;8.810;2024-03-22T08:49:32;12.10;99.90
24232;DHT22;12364;47.810;8.810;2024-03-22T08:51:58;12.10;99.90
24232;DHT22;12364;47.810;8.810;2024-03-22T08:54:24;12.20;99.90
24232;DHT22;12364;47.810;8.810;2024-03-22T08:56:50;12.30;99.90
24232;DHT22;12364;47.810;8.810;2024-03-22T08:59:16;12.40;99.90
24232;DHT22;12364;47.810;8.810;2024-03-22T09:01:42;12.40;99.90
24232;DHT22;12364;47.810;8.810;2024-03-22T09:04:08;12.40;99.90
24232;DHT22;12364;47.810;8.810;2024-03-22T09:06:34;12.50;99.90
24232;DHT22;12364;47.810;8.810;2024-03-22T09:09:00;12.60;99.90
24232;DHT22;12364;47.810;8.810;2024-03-22T09:11:26;12.60;99.90
24232;DHT22;12364;47.810;8.810;2024-03-22T09:13:52;12.70;99.90
24232;DHT22;12364;47.810;8.810;2024-03-22T09:16:22;12.80;99.90
24232;DHT22;12364;47.810;8.810;2024-03-22T09:18:48;12.90;99.90
24232;DHT22;12364;47.810;8.810;2024-03-22T09:21:14;13.00;99.90
24232;DHT22;12364;47.810;8.810;2024-03-22T09:23:40;13.00;99.90
24232;DHT22;12364;47.810;8.810;2024-03-22T09:26:06;13.00;99.90
24232;DHT22;12364;47.810;8.810;2024-03-22T09:28:32;12.90;99.90
24232;DHT22;12364;47.810;8.810;2024-03-22T09:31:03;12.90;99.90
24232;DHT22;12364;47.810;8.810;2024-03-22T09:33:29;12.80;99.90
24232;DHT22;12364;47.810;8.810;2024-03-22T09:35:55;12.80;99.90
24232;DHT22;12364;47.810;8.810;2024-03-22T09:38:21;13.00;99.90
24232;DHT22;12364;47.810;8.810;2024-03-22T09:40:47;13.00;99.90
24232;DHT22;12364;47.810;8.810;2024-03-22T09:43:13;13.10;99.90
24232;DHT22;12364;47.810;8.810;2024-03-22T09:45:43;13.30;99.90
24232;DHT22;12364;47.810;8.810;2024-03-22T09:48:10;13.40;99.90
24232;DHT22;12364;47.810;8.810;2024-03-22T09:50:36;13.40;99.90
24232;DHT22;12364;47.810;8.810;2024-03-22T09:53:02;13.40;99.90
24232;DHT22;12364;47.810;8.810;2024-03-22T09:55:28;13.40;99.90
24232;DHT22;12364;47.810;8.810;2024-03-22T09:57:55;13.60;99.90
24232;DHT22;12364;47.810;8.810;2024-03-22T10:00:21;13.50;99.90
24232;DHT22;12364;47.810;8.810;2024-03-22T10:02:51;13.70;99.90
24232;DHT22;12364;47.810;8.810;2024-03-22T10:05:19;13.70;99.90
24232;DHT22;12364;47.810;8.810;2024-03-22T10:07:45;13.80;99.90
24232;DHT22;12364;47.810;8.810;2024-03-22T10:10:11;13.70;99.90
24232;DHT22;12364;47.810;8.810;2024-03-22T10:12:38;13.60;99.90
24232;DHT22;12364;47.810;8.810;2024-03-22T10:15:05;13.50;99.90
24232;DHT22;12364;47.810;8.810;2024-03-22T10:17:34;13.60;99.90
24232;DHT22;12364;47.810;8.810;2024-03-22T10:20:00;13.70;99.90
24232;DHT22;12364;47.810;8.810;2024-03-22T10:22:26;13.70;99.90
24232;DHT22;12364;47.810;8.810;2024-03-22T10:24:53;13.70;99.90
24232;DHT22;12364;47.810;8.810;2024-03-22T10:27:19;13.80;99.90
24232;DHT22;12364;47.810;8.810;2024-03-22T10:29:45;13.90;99.90
24232;DHT22;12364;47.810;8.810;2024-03-22T10:32:11;14.00;99.90
24232;DHT22;12364;47.810;8.810;2024-03-22T10:34:38;14.00;99.90
24232;DHT22;12364;47.810;8.810;2024-03-22T10:37:05;13.90;99.90
24232;DHT22;12364;47.810;8.810;2024-03-22T10:39:34;13.90;99.90
24232;DHT22;12364;47.810;8.810;2024-03-22T10:42:00;13.80;99.90
24232;DHT22;12364;47.810;8.810;2024-03-22T10:44:27;13.90;99.90
24232;DHT22;12364;47.810;8.810;2024-03-22T10:46:53;14.00;99.90
24232;DHT22;12364;47.810;8.810;2024-03-22T10:49:21;14.00;99.90
24232;DHT22;12364;47.810;8.810;2024-03-22T10:51:49;14.20;99.90
24232;DHT22;12364;47.810;8.810;2024-03-22T10:54:17;14.30;99.90
24232;DHT22;12364;47.810;8.810;2024-03-22T10:56:44;14.40;99.90
24232;DHT22;12364;47.810;8.810;2024-03-22T10:59:18;14.40;99.90
24232;DHT22;12364;47.810;8.810;2024-03-22T11:01:45;14.40;99.90
24232;DHT22;12364;47.810;8.810;2024-03-22T11:04:12;14.50;99.90
24232;DHT22;12364;47.810;8.810;2024-03-22T11:06:38;14.50;99.90
24232;DHT22;12364;47.810;8.810;2024-03-22T11:09:04;14.60;99.90
24232;DHT22;12364;47.810;8.810;2024-03-22T11:11:30;14.60;99.90
24232;DHT22;12364;47.810;8.810;2024-03-22T11:14:03;14.60;99.90
24232;DHT22;12364;47.810;8.810;2024-03-22T11:16:29;14.50;99.90
24232;DHT22;12364;47.810;8.810;2024-03-22T11:18:55;14.50;99.90
24232;DHT22;12364;47.810;8.810;2024-03-22T11:21:21;14.60;99.90
24232;DHT22;12364;47.810;8.810;2024-03-22T11:23:47;14.80;99.90
24232;DHT22;12364;47.810;8.810;2024-03-22T11:26:13;15.00;99.90
24232;DHT22;12364;47.810;8.810;2024-03-22T11:28:39;14.90;99.90
24232;DHT22;12364;47.810;8.810;2024-03-22T11:31:05;15.00;99.90
24232;DHT22;12364;47.810;8.810;2024-03-22T11:33:32;15.00;99.90
24232;DHT22;12364;47.810;8.810;2024-03-22T11:35:58;14.90;99.90
24232;DHT22;12364;47.810;8.810;2024-03-22T11:38:28;14.90;99.90
24232;DHT22;12364;47.810;8.810;2024-03-22T11:40:56;15.10;99.90
24232;DHT22;12364;47.810;8.810;2024-03-22T11:43:23;15.10;99.90
24232;DHT22;12364;47.810;8.810;2024-03-22T11:45:49;15.20;99.90
24232;DHT22;12364;47.810;8.810;2024-03-22T11:48:15;15.20;99.90
24232;DHT22;12364;47.810;8.810;2024-03-22T11:50:42;15.30;99.90
24232;DHT22;12364;47.810;8.810;2024-03-22T11:53:08;15.30;99.90
24232;DHT22;12364;47.810;8.810;2024-03-22T11:55:35;15.40;99.90
24232;DHT22;12364;47.810;8.810;2024-03-22T11:58:01;15.40;99.90
24232;DHT22;12364;47.810;8.810;2024-03-22T12:00:28;15.30;99.90
24232;DHT22;12364;47.810;8.810;2024-03-22T12:02:54;15.20;99.90
24232;DHT22;12364;47.810;8.810;2024-03-22T12:05:23;15.30;99.90
24232;DHT22;12364;47.810;8.810;2024-03-22T12:07:51;15.40;99.90
24232;DHT22;12364;47.810;8.810;2024-03-22T12:10:17;15.50;99.90
24232;DHT22;12364;47.810;8.810;2024-03-22T12:12:43;15.50;99.90
24232;DHT22;12364;47.810;8.810;2024-03-22T12:15:09;15.40;99.90
24232;DHT22;12364;47.810;8.810;2024-03-22T12:17:35;15.50;99.90
24232;DHT22;12364;47.810;8.810;2024-03-22T12:20:03;15.70;99.90
24232;DHT22;12364;47.810;8.810;2024-03-22T12:22:30;15.80;99.90
24232;DHT22;12364;47.810;8.810;2024-03-22T12:24:56;15.80;99.90
24232;DHT22;12364;47.810;8.810;2024-03-22T12:27:23;15.80;99.90
24232;DHT22;12364;47.810;8.810;2024-03-22T12:29:49;15.80;99.90
24232;DHT22;12364;47.810;8.810;2024-03-22T12:32:15;15.90;99.90
24232;DHT22;12364;47.810;8.810;2024-03-22T12:34:41;15.80;99.90
24232;DHT22;12364;47.810;8.810;2024-03-22T12:37:07;15.80;99.90
24232;DHT22;12364;47.810;8.810;2024-03-22T12:39:33;15.80;99.90
24232;DHT22;12364;47.810;8.810;2024-03-22T12:41:59;15.90;99.90
24232;DHT22;12364;47.810;8.810;2024-03-22T12:44:25;16.10;99.90
24232;DHT22;12364;47.810;8.810;2024-03-22T12:46:52;16.10;99.90
24232;DHT22;12364;47.810;8.810;2024-03-22T12:49:20;16.10;99.90
24232;DHT22;12364;47.810;8.810;2024-03-22T12:51:46;16.30;99.90
24232;DHT22;12364;47.810;8.810;2024-03-22T12:54:13;16.30;99.90
24232;DHT22;12364;47.810;8.810;2024-03-22T12:56:40;16.20;99.90
24232;DHT22;12364;47.810;8.810;2024-03-22T12:59:06;16.30;99.90
24232;DHT22;12364;47.810;8.810;2024-03-22T13:01:33;16.30;99.90
24232;DHT22;12364;47.810;8.810;2024-03-22T13:03:59;16.30;99.90
24232;DHT22;12364;47.810;8.810;2024-03-22T13:06:25;16.20;99.90
24232;DHT22;12364;47.810;8.810;2024-03-22T13:08:51;16.20;99.90
24232;DHT22;12364;47.810;8.810;2024-03-22T13:11:17;16.30;99.90
24232;DHT22;12364;47.810;8.810;2024-03-22T13:13:43;16.30;99.90
24232;DHT22;12364;47.810;8.810;2024-03-22T13:16:09;16.40;99.90
24232;DHT22;12364;47.810;8.810;2024-03-22T13:18:41;16.40;99.90
24232;DHT22;12364;47.810;8.810;2024-03-22T13:21:07;16.70;99.90
24232;DHT22;12364;47.810;8.810;2024-03-22T13:23:33;16.60;99.90
24232;DHT22;12364;47.810;8.810;2024-03-22T13:26:03;16.60;99.90
24232;DHT22;12364;47.810;8.810;2024-03-22T13:28:30;16.40;99.90
24232;DHT22;12364;47.810;8.810;2024-03-22T13:31:00;16.40;99.90
24232;DHT22;12364;47.810;8.810;2024-03-22T13:33:26;16.60;99.90
24232;DHT22;12364;47.810;8.810;2024-03-22T13:35:52;16.60;99.90
24232;DHT22;12364;47.810;8.810;2024-03-22T13:38:18;16.60;99.90
24232;DHT22;12364;47.810;8.810;2024-03-22T13:40:52;16.60;99.90
24232;DHT22;12364;47.810;8.810;2024-03-22T13:43:18;16.60;99.90
24232;DHT22;12364;47.810;8.810;2024-03-22T13:45:44;16.70;99.90
24232;DHT22;12364;47.810;8.810;2024-03-22T13:48:10;16.60;99.90
24232;DHT22;12364;47.810;8.810;2024-03-22T13:50:37;16.60;99.90
24232;DHT22;12364;47.810;8.810;2024-03-22T13:53:03;16.70;99.90
24232;DHT22;12364;47.810;8.810;2024-03-22T13:55:29;16.70;99.90
24232;DHT22;12364;47.810;8.810;2024-03-22T13:57:55;16.80;99.90
24232;DHT22;12364;47.810;8.810;2024-03-22T14:00:21;16.60;99.90
24232;DHT22;12364;47.810;8.810;2024-03-22T14:02:50;16.70;99.90
24232;DHT22;12364;47.810;8.810;2024-03-22T14:05:19;16.80;99.90
24232;DHT22;12364;47.810;8.810;2024-03-22T14:07:45;16.80;99.90
24232;DHT22;12364;47.810;8.810;2024-03-22T14:10:11;16.80;99.90
24232;DHT22;12364;47.810;8.810;2024-03-22T14:12:42;16.70;99.90
24232;DHT22;12364;47.810;8.810;2024-03-22T14:15:08;16.70;99.90
24232;DHT22;12364;47.810;8.810;2024-03-22T14:17:34;16.90;99.90
24232;DHT22;12364;47.810;8.810;2024-03-22T14:20:00;16.80;99.90
24232;DHT22;12364;47.810;8.810;2024-03-22T14:22:26;16.80;99.90
24232;DHT22;12364;47.810;8.810;2024-03-22T14:24:52;16.70;99.90
24232;DHT22;12364;47.810;8.810;2024-03-22T14:27:18;16.70;99.90
24232;DHT22;12364;47.810;8.810;2024-03-22T14:29:46;16.70;99.90
24232;DHT22;12364;47.810;8.810;2024-03-22T14:32:12;16.60;99.90
24232;DHT22;12364;47.810;8.810;2024-03-22T14:34:38;16.60;99.90
24232;DHT22;12364;47.810;8.810;2024-03-22T14:37:04;16.50;99.90
24232;DHT22;12364;47.810;8.810;2024-03-22T14:39:30;16.50;99.90
24232;DHT22;12364;47.810;8.810;2024-03-22T14:41:56;16.60;99.90
24232;DHT22;12364;47.810;8.810;2024-03-22T14:44:22;16.70;99.90
24232;DHT22;12364;47.810;8.810;2024-03-22T14:46:48;16.80;99.90
24232;DHT22;12364;47.810;8.810;2024-03-22T14:49:14;16.80;99.90
24232;DHT22;12364;47.810;8.810;2024-03-22T14:51:40;16.60;99.90
24232;DHT22;12364;47.810;8.810;2024-03-22T14:54:06;16.60;99.90
24232;DHT22;12364;47.810;8.810;2024-03-22T14:56:32;16.60;99.90
24232;DHT22;12364;47.810;8.810;2024-03-22T14:58:58;16.70;99.90
24232;DHT22;12364;47.810;8.810;2024-03-22T15:01:27;16.80;99.30
24232;DHT22;12364;47.810;8.810;2024-03-22T15:03:53;16.80;99.90
24232;DHT22;12364;47.810;8.810;2024-03-22T15:06:19;16.70;99.90
24232;DHT22;12364;47.810;8.810;2024-03-22T15:08:45;16.70;99.90
24232;DHT22;12364;47.810;8.810;2024-03-22T15:11:11;16.60;99.90
24232;DHT22;12364;47.810;8.810;2024-03-22T15:13:37;16.60;99.90
24232;DHT22;12364;47.810;8.810;2024-03-22T15:16:03;16.60;99.90
24232;DHT22;12364;47.810;8.810;2024-03-22T15:18:29;16.80;99.90
24232;DHT22;12364;47.810;8.810;2024-03-22T15:20:55;16.80;99.90
24232;DHT22;12364;47.810;8.810;2024-03-22T15:23:22;16.90;99.90
24232;DHT22;12364;47.810;8.810;2024-03-22T15:25:48;16.90;99.90
24232;DHT22;12364;47.810;8.810;2024-03-22T15:28:17;16.90;99.90
24232;DHT22;12364;47.810;8.810;2024-03-22T15:30:44;16.90;99.90
24232;DHT22;12364;47.810;8.810;2024-03-22T15:33:10;17.00;99.90
24232;DHT22;12364;47.810;8.810;2024-03-22T15:35:37;17.10;99.90
24232;DHT22;12364;47.810;8.810;2024-03-22T15:38:03;17.10;99.90
24232;DHT22;12364;47.810;8.810;2024-03-22T15:40:30;17.10;99.90
24232;DHT22;12364;47.810;8.810;2024-03-22T15:42:58;17.10;99.90
24232;DHT22;12364;47.810;8.810;2024-03-22T15:45:24;17.10;99.90
24232;DHT22;12364;47.810;8.810;2024-03-22T15:47:50;17.10;99.90
24232;DHT22;12364;47.810;8.810;2024-03-22T15:50:16;17.30;99.90
24232;DHT22;12364;47.810;8.810;2024-03-22T15:52:43;17.20;99.90
24232;DHT22;12364;47.810;8.810;2024-03-22T15:55:09;17.20;99.90
24232;DHT22;12364;47.810;8.810;2024-03-22T15:57:35;17.30;99.90
24232;DHT22;12364;47.810;8.810;2024-03-22T16:00:01;17.20;99.90
24232;DHT22;12364;47.810;8.810;2024-03-22T16:02:27;17.20;99.90
24232;DHT22;12364;47.810;8.810;2024-03-22T16:04:53;17.10;99.90
24232;DHT22;12364;47.810;8.810;2024-03-22T16:07:20;17.00;99.90
24232;DHT22;12364;47.810;8.810;2024-03-22T16:09:46;16.90;99.90
24232;DHT22;12364;47.810;8.810;2024-03-22T16:12:12;16.90;99.90
24232;DHT22;12364;47.810;8.810;2024-03-22T16:14:38;17.00;99.90
24232;DHT22;12364;47.810;8.810;2024-03-22T16:17:04;17.10;99.90
24232;DHT22;12364;47.810;8.810;2024-03-22T16:19:32;17.10;99.90
24232;DHT22;12364;47.810;8.810;2024-03-22T16:21:58;17.10;99.90
24232;DHT22;12364;47.810;8.810;2024-03-22T16:24:24;17.00;99.90
24232;DHT22;12364;47.810;8.810;2024-03-22T16:26:50;17.00;99.90
24232;DHT22;12364;47.810;8.810;2024-03-22T16:29:16;17.10;99.90
24232;DHT22;12364;47.810;8.810;2024-03-22T16:31:42;17.10;99.90
24232;DHT22;12364;47.810;8.810;2024-03-22T16:34:08;17.20;99.90
24232;DHT22;12364;47.810;8.810;2024-03-22T16:36:34;17.20;99.90
24232;DHT22;12364;47.810;8.810;2024-03-22T16:39:00;17.20;99.90
24232;DHT22;12364;47.810;8.810;2024-03-22T16:41:28;17.10;99.90
24232;DHT22;12364;47.810;8.810;2024-03-22T16:43:54;17.20;99.90
24232;DHT22;12364;47.810;8.810;2024-03-22T16:46:20;17.10;99.90
24232;DHT22;12364;47.810;8.810;2024-03-22T16:48:46;17.10;99.90
24232;DHT22;12364;47.810;8.810;2024-03-22T16:51:13;17.00;99.90
24232;DHT22;12364;47.810;8.810;2024-03-22T16:53:39;16.90;99.90
24232;DHT22;12364;47.810;8.810;2024-03-22T16:56:05;17.00;99.90
24232;DHT22;12364;47.810;8.810;2024-03-22T16:58:31;17.00;99.90
24232;DHT22;12364;47.810;8.810;2024-03-22T17:01:04;17.10;99.90
24232;DHT22;12364;47.810;8.810;2024-03-22T17:03:30;17.10;99.90
24232;DHT22;12364;47.810;8.810;2024-03-22T17:05:56;17.00;99.90
24232;DHT22;12364;47.810;8.810;2024-03-22T17:08:22;17.00;99.90
24232;DHT22;12364;47.810;8.810;2024-03-22T17:10:48;17.00;99.90
24232;DHT22;12364;47.810;8.810;2024-03-22T17:13:17;17.00;99.90
24232;DHT22;12364;47.810;8.810;2024-03-22T17:15:43;17.00;99.90
24232;DHT22;12364;47.810;8.810;2024-03-22T17:18:09;17.00;99.90
24232;DHT22;12364;47.810;8.810;2024-03-22T17:20:37;17.00;99.90
24232;DHT22;12364;47.810;8.810;2024-03-22T17:23:04;17.00;99.90
24232;DHT22;12364;47.810;8.810;2024-03-22T17:25:30;17.00;99.90
24232;DHT22;12364;47.810;8.810;2024-03-22T17:27:56;17.00;99.90
24232;DHT22;12364;47.810;8.810;2024-03-22T17:30:22;17.00;99.90
24232;DHT22;12364;47.810;8.810;2024-03-22T17:32:48;17.00;99.90
24232;DHT22;12364;47.810;8.810;2024-03-22T17:35:14;17.00;99.90
24232;DHT22;12364;47.810;8.810;2024-03-22T17:37:40;17.00;99.90
24232;DHT22;12364;47.810;8.810;2024-03-22T17:40:07;17.00;99.90
24232;DHT22;12364;47.810;8.810;2024-03-22T17:42:33;17.00;99.90
24232;DHT22;12364;47.810;8.810;2024-03-22T17:44:59;16.90;99.90
24232;DHT22;12364;47.810;8.810;2024-03-22T17:47:25;16.90;99.90
24232;DHT22;12364;47.810;8.810;2024-03-22T17:49:51;16.70;99.90
24232;DHT22;12364;47.810;8.810;2024-03-22T17:52:17;16.70;99.90
24232;DHT22;12364;47.810;8.810;2024-03-22T17:54:45;16.70;99.90
24232;DHT22;12364;47.810;8.810;2024-03-22T17:57:11;16.70;99.90
24232;DHT22;12364;47.810;8.810;2024-03-22T17:59:37;16.70;99.90
24232;DHT22;12364;47.810;8.810;2024-03-22T18:02:03;16.60;99.90
24232;DHT22;12364;47.810;8.810;2024-03-22T18:04:29;16.60;99.90
24232;DHT22;12364;47.810;8.810;2024-03-22T18:06:55;16.50;99.90
24232;DHT22;12364;47.810;8.810;2024-03-22T18:09:21;16.40;99.90
24232;DHT22;12364;47.810;8.810;2024-03-22T18:11:47;16.50;99.90
24232;DHT22;12364;47.810;8.810;2024-03-22T18:14:13;16.30;99.90
24232;DHT22;12364;47.810;8.810;2024-03-22T18:16:39;16.30;99.90
24232;DHT22;12364;47.810;8.810;2024-03-22T18:19:05;16.30;99.90
24232;DHT22;12364;47.810;8.810;2024-03-22T18:21:32;16.40;99.90
24232;DHT22;12364;47.810;8.810;2024-03-22T18:23:58;16.20;99.90
24232;DHT22;12364;47.810;8.810;2024-03-22T18:26:24;16.20;99.90
24232;DHT22;12364;47.810;8.810;2024-03-22T18:28:50;16.20;99.90
24232;DHT22;12364;47.810;8.810;2024-03-22T18:31:16;16.20;99.90
24232;DHT22;12364;47.810;8.810;2024-03-22T18:33:43;16.10;99.90
24232;DHT22;12364;47.810;8.810;2024-03-22T18:36:09;16.10;99.90
24232;DHT22;12364;47.810;8.810;2024-03-22T18:38:35;16.00;99.90
24232;DHT22;12364;47.810;8.810;2024-03-22T18:41:02;16.00;99.90
24232;DHT22;12364;47.810;8.810;2024-03-22T18:43:29;16.00;99.90
24232;DHT22;12364;47.810;8.810;2024-03-22T18:45:55;15.90;99.90
24232;DHT22;12364;47.810;8.810;2024-03-22T18:48:22;16.00;99.90
24232;DHT22;12364;47.810;8.810;2024-03-22T18:50:51;15.90;99.90
24232;DHT22;12364;47.810;8.810;2024-03-22T18:53:18;15.90;99.90
24232;DHT22;12364;47.810;8.810;2024-03-22T18:55:44;15.90;99.90
24232;DHT22;12364;47.810;8.810;2024-03-22T18:58:11;15.80;99.90
24232;DHT22;12364;47.810;8.810;2024-03-22T19:00:37;15.80;99.90
24232;DHT22;12364;47.810;8.810;2024-03-22T19:03:03;15.80;99.90
24232;DHT22;12364;47.810;8.810;2024-03-22T19:05:30;15.70;99.90
24232;DHT22;12364;47.810;8.810;2024-03-22T19:07:56;15.70;99.90
24232;DHT22;12364;47.810;8.810;2024-03-22T19:10:22;15.60;99.90
24232;DHT22;12364;47.810;8.810;2024-03-22T19:12:48;15.60;99.90
24232;DHT22;12364;47.810;8.810;2024-03-22T19:15:14;15.50;99.90
24232;DHT22;12364;47.810;8.810;2024-03-22T19:17:40;15.50;99.90
24232;DHT22;12364;47.810;8.810;2024-03-22T19:20:07;15.40;99.90
24232;DHT22;12364;47.810;8.810;2024-03-22T19:22:35;15.20;99.90
24232;DHT22;12364;47.810;8.810;2024-03-22T19:25:01;15.20;99.90
24232;DHT22;12364;47.810;8.810;2024-03-22T19:27:27;15.20;99.90
24232;DHT22;12364;47.810;8.810;2024-03-22T19:29:53;15.20;99.90
24232;DHT22;12364;47.810;8.810;2024-03-22T19:32:19;15.20;99.90
24232;DHT22;12364;47.810;8.810;2024-03-22T19:34:45;15.20;99.90
24232;DHT22;12364;47.810;8.810;2024-03-22T19:37:11;15.10;99.90
24232;DHT22;12364;47.810;8.810;2024-03-22T19:39:37;14.90;99.90
24232;DHT22;12364;47.810;8.810;2024-03-22T19:42:03;14.90;99.90
24232;DHT22;12364;47.810;8.810;2024-03-22T19:44:29;14.80;99.90
24232;DHT22;12364;47.810;8.810;2024-03-22T19:46:56;14.70;99.90
24232;DHT22;12364;47.810;8.810;2024-03-22T19:49:24;14.80;99.90
24232;DHT22;12364;47.810;8.810;2024-03-22T19:51:50;14.90;99.90
24232;DHT22;12364;47.810;8.810;2024-03-22T19:54:16;14.90;99.90
24232;DHT22;12364;47.810;8.810;2024-03-22T19:56:42;14.90;99.90
24232;DHT22;12364;47.810;8.810;2024-03-22T19:59:08;14.90;99.90
24232;DHT22;12364;47.810;8.810;2024-03-22T20:01:34;14.80;99.90
24232;DHT22;12364;47.810;8.810;2024-03-22T20:04:00;14.80;99.90
24232;DHT22;12364;47.810;8.810;2024-03-22T20:06:26;14.70;99.90
24232;DHT22;12364;47.810;8.810;2024-03-22T20:08:52;14.70;99.90
24232;DHT22;12364;47.810;8.810;2024-03-22T20:11:18;14.80;99.90